createdAt,value
2019-03-23T00:02:22.146Z,8.00
2019-03-23T00:04:53.294Z,8.00
2019-03-23T00:07:24.190Z,8.00
2019-03-23T00:09:54.966Z,8.00
2019-03-23T00:12:25.838Z,7.90
2019-03-23T00:14:56.634Z,7.90
2019-03-23T00:17:27.775Z,7.90
2019-03-23T00:19:58.578Z,7.90
2019-03-23T00:22:29.503Z,7.80
2019-03-23T00:25:00.366Z,7.80
2019-03-23T00:27:31.182Z,7.60
2019-03-23T00:30:03.594Z,7.50
2019-03-23T00:32:35.626Z,7.50
2019-03-23T00:35:07.402Z,7.50
2019-03-23T00:37:38.214Z,7.40
2019-03-23T00:40:09.190Z,7.50
2019-03-23T00:42:39.998Z,7.50
2019-03-23T00:45:11.150Z,7.50
2019-03-23T00:47:41.955Z,7.60
2019-03-23T00:50:13.261Z,7.60
2019-03-23T00:52:44.066Z,7.60
2019-03-23T00:55:15.058Z,7.70
2019-03-23T00:57:46.075Z,7.70
2019-03-23T01:00:17.797Z,7.80
2019-03-23T01:02:48.579Z,7.80
2019-03-23T01:05:19.490Z,7.80
2019-03-23T01:07:50.398Z,7.80
2019-03-23T01:10:21.317Z,7.80
2019-03-23T01:12:52.186Z,7.80
2019-03-23T01:15:23.127Z,7.80
2019-03-23T01:17:53.966Z,7.80
2019-03-23T01:20:24.758Z,7.90
2019-03-23T01:22:55.686Z,7.90
2019-03-23T01:25:26.531Z,7.90
2019-03-23T01:27:57.390Z,8.00
2019-03-23T01:30:28.200Z,8.00
2019-03-23T01:32:59.012Z,8.00
2019-03-23T01:35:29.834Z,8.00
2019-03-23T01:38:00.731Z,8.00
2019-03-23T01:40:31.670Z,8.00
2019-03-23T01:43:02.623Z,8.00
2019-03-23T01:45:33.582Z,8.00
2019-03-23T01:48:04.638Z,8.00
2019-03-23T01:50:35.480Z,8.10
2019-03-23T01:53:06.263Z,8.10
2019-03-23T01:55:37.407Z,8.10
2019-03-23T01:58:08.224Z,8.10
2019-03-23T02:00:39.155Z,8.10
2019-03-23T02:03:10.135Z,8.20
2019-03-23T02:05:40.939Z,8.20
2019-03-23T02:08:11.907Z,8.20
2019-03-23T02:10:42.781Z,8.20
2019-03-23T02:13:13.590Z,8.20
2019-03-23T02:15:44.535Z,8.30
2019-03-23T02:18:15.406Z,8.30
2019-03-23T02:20:46.507Z,8.30
2019-03-23T02:23:17.334Z,8.30
2019-03-23T02:25:48.191Z,8.30
2019-03-23T02:28:18.991Z,8.30
2019-03-23T02:30:49.862Z,8.30
2019-03-23T02:33:20.911Z,8.30
2019-03-23T02:35:51.957Z,8.30
2019-03-23T02:38:22.791Z,8.20
2019-03-23T02:40:53.752Z,8.20
2019-03-23T02:43:24.588Z,8.30
2019-03-23T02:45:55.555Z,8.30
2019-03-23T02:48:26.366Z,8.30
2019-03-23T02:50:57.185Z,8.30
2019-03-23T02:53:28.080Z,8.30
2019-03-23T02:55:58.963Z,8.30
2019-03-23T02:58:29.821Z,8.30
2019-03-23T03:01:00.697Z,8.30
2019-03-23T03:03:32.475Z,8.40
2019-03-23T03:06:03.372Z,8.40
2019-03-23T03:08:34.246Z,8.40
2019-03-23T03:11:06.109Z,8.40
2019-03-23T03:13:36.943Z,8.40
2019-03-23T03:16:07.819Z,8.40
2019-03-23T03:18:38.689Z,8.40
2019-03-23T03:21:09.753Z,8.40
2019-03-23T03:23:40.857Z,8.50
2019-03-23T03:26:12.647Z,8.50
2019-03-23T03:28:43.660Z,8.60
2019-03-23T03:31:14.588Z,8.50
2019-03-23T03:33:45.405Z,8.50
2019-03-23T03:36:16.290Z,8.50
2019-03-23T03:38:47.191Z,8.60
2019-03-23T03:41:19.062Z,8.60
2019-03-23T03:43:49.985Z,8.60
2019-03-23T03:46:20.800Z,8.60
2019-03-23T03:48:51.600Z,8.60
2019-03-23T03:51:22.472Z,8.50
2019-03-23T03:53:53.521Z,8.50
2019-03-23T03:56:24.499Z,8.50
2019-03-23T03:58:55.333Z,8.40
2019-03-23T04:01:26.270Z,8.40
2019-03-23T04:03:57.154Z,8.50
2019-03-23T04:06:27.964Z,8.50
2019-03-23T04:08:59.000Z,8.60
2019-03-23T04:11:29.834Z,8.60
2019-03-23T04:14:00.644Z,8.60
2019-03-23T04:16:31.467Z,8.60
2019-03-23T04:19:02.407Z,8.50
2019-03-23T04:21:33.344Z,8.40
2019-03-23T04:24:04.310Z,8.40
2019-03-23T04:26:35.184Z,8.40
2019-03-23T04:29:06.061Z,8.40
2019-03-23T04:31:36.855Z,8.40
2019-03-23T04:34:07.827Z,8.40
2019-03-23T04:36:38.678Z,8.40
2019-03-23T04:39:09.588Z,8.40
2019-03-23T04:41:40.556Z,8.40
2019-03-23T04:44:11.451Z,8.50
2019-03-23T04:46:43.999Z,8.50
2019-03-23T04:49:15.043Z,8.50
2019-03-23T04:51:45.871Z,8.50
2019-03-23T04:54:16.841Z,8.60
2019-03-23T04:56:47.673Z,8.50
2019-03-23T04:59:18.539Z,8.60
2019-03-23T05:01:49.499Z,8.60
2019-03-23T05:04:20.308Z,8.70
2019-03-23T05:06:51.099Z,8.50
2019-03-23T05:09:22.972Z,8.60
2019-03-23T05:11:53.791Z,8.60
2019-03-23T05:14:24.728Z,8.60
2019-03-23T05:16:55.591Z,8.60
2019-03-23T05:19:26.415Z,8.70
2019-03-23T05:21:57.319Z,8.70
2019-03-23T05:24:28.271Z,8.70
2019-03-23T05:26:59.311Z,8.60
2019-03-23T05:29:30.100Z,8.60
2019-03-23T05:32:00.906Z,8.60
2019-03-23T05:34:31.732Z,8.60
2019-03-23T05:37:02.671Z,8.60
2019-03-23T05:39:33.680Z,8.70
2019-03-23T05:42:04.763Z,8.70
2019-03-23T05:44:35.604Z,8.60
2019-03-23T05:47:06.433Z,8.60
2019-03-23T05:49:37.263Z,8.60
2019-03-23T05:52:08.273Z,8.70
2019-03-23T05:54:39.339Z,8.70
2019-03-23T05:57:10.216Z,8.70
2019-03-23T05:59:41.187Z,8.70
2019-03-23T06:02:12.115Z,8.70
2019-03-23T06:04:42.927Z,8.70
2019-03-23T06:07:13.831Z,8.70
2019-03-23T06:09:44.627Z,8.80
2019-03-23T06:12:17.625Z,8.80
2019-03-23T06:14:48.265Z,8.70
2019-03-23T06:17:19.199Z,8.80
2019-03-23T06:19:49.987Z,8.70
2019-03-23T06:22:20.804Z,8.70
2019-03-23T06:24:51.702Z,8.70
2019-03-23T06:27:22.519Z,8.70
2019-03-23T06:29:53.332Z,8.60
2019-03-23T06:32:25.112Z,8.70
2019-03-23T06:34:55.928Z,8.70
2019-03-23T06:37:26.784Z,8.80
2019-03-23T06:39:57.719Z,8.90
2019-03-23T06:42:28.627Z,8.90
2019-03-23T06:44:59.439Z,8.90
2019-03-23T06:47:30.371Z,8.90
2019-03-23T06:50:02.251Z,8.90
2019-03-23T06:52:33.154Z,8.90
2019-03-23T06:55:04.037Z,8.90
2019-03-23T06:57:34.907Z,8.90
2019-03-23T07:00:07.672Z,9.00
2019-03-23T07:02:39.547Z,9.00
2019-03-23T07:05:10.897Z,9.00
2019-03-23T07:07:41.895Z,9.00
2019-03-23T07:10:13.065Z,9.00
2019-03-23T07:12:43.933Z,9.00
2019-03-23T07:15:19.862Z,9.00
2019-03-23T07:17:47.580Z,9.10
2019-03-23T07:20:18.648Z,9.10
2019-03-23T07:22:49.434Z,9.20
2019-03-23T07:25:20.320Z,9.40
2019-03-23T07:27:51.100Z,9.40
2019-03-23T07:30:22.025Z,9.40
2019-03-23T07:32:52.880Z,9.50
2019-03-23T07:35:23.831Z,9.50
2019-03-23T07:37:54.645Z,9.50
2019-03-23T07:40:25.544Z,9.60
2019-03-23T07:42:56.470Z,9.70
2019-03-23T07:45:27.268Z,9.80
2019-03-23T07:47:58.200Z,9.80
2019-03-23T07:50:29.070Z,9.80
2019-03-23T07:52:59.956Z,9.80
2019-03-23T07:55:31.155Z,9.70
2019-03-23T07:58:01.972Z,9.80
2019-03-23T08:00:32.884Z,9.90
2019-03-23T08:03:04.028Z,9.90
2019-03-23T08:05:34.867Z,9.80
2019-03-23T08:08:06.656Z,9.90
2019-03-23T08:10:38.484Z,10.00
2019-03-23T08:13:09.312Z,10.00
2019-03-23T08:15:40.224Z,10.00
2019-03-23T08:18:11.115Z,10.10
2019-03-23T08:20:42.512Z,10.20
2019-03-23T08:23:13.400Z,10.30
2019-03-23T08:25:44.316Z,10.30
2019-03-23T08:28:15.128Z,10.30
2019-03-23T08:30:46.096Z,10.40
2019-03-23T08:33:18.220Z,10.30
2019-03-23T08:35:49.905Z,10.40
2019-03-23T08:38:21.044Z,10.40
2019-03-23T08:40:52.372Z,10.40
2019-03-23T08:43:23.813Z,10.50
2019-03-23T08:45:54.668Z,10.60
2019-03-23T08:48:25.552Z,10.70
2019-03-23T08:50:56.356Z,10.80
2019-03-23T08:53:27.167Z,10.80
2019-03-23T08:55:58.048Z,10.80
2019-03-23T08:58:30.355Z,10.90
2019-03-23T09:01:01.301Z,10.90
2019-03-23T09:03:32.235Z,10.90
2019-03-23T09:06:03.057Z,11.00
2019-03-23T09:08:33.960Z,11.00
2019-03-23T09:11:04.912Z,11.10
2019-03-23T09:13:40.656Z,11.20
2019-03-23T09:16:08.329Z,11.20
2019-03-23T09:18:39.204Z,11.40
2019-03-23T09:21:10.108Z,11.50
2019-03-23T09:23:41.016Z,11.70
2019-03-23T09:26:13.618Z,11.70
2019-03-23T09:28:44.444Z,11.70
2019-03-23T09:31:16.416Z,11.70
2019-03-23T09:33:47.209Z,11.70
2019-03-23T09:36:18.032Z,11.90
2019-03-23T09:38:48.910Z,11.70
2019-03-23T09:41:19.793Z,11.70
2019-03-23T09:43:50.662Z,11.80
2019-03-23T09:46:21.540Z,11.80
2019-03-23T09:48:52.477Z,11.70
2019-03-23T09:51:23.388Z,11.70
2019-03-23T09:53:57.157Z,11.70
2019-03-23T09:56:27.945Z,11.60
2019-03-23T09:58:58.850Z,11.60
2019-03-23T10:01:29.648Z,11.50
2019-03-23T10:04:00.551Z,11.40
2019-03-23T10:06:31.424Z,11.40
2019-03-23T10:09:02.308Z,11.40
2019-03-23T10:11:34.261Z,11.30
2019-03-23T10:14:05.157Z,11.30
2019-03-23T10:16:35.958Z,11.30
2019-03-23T10:19:07.005Z,11.30
2019-03-23T10:21:37.818Z,11.40
2019-03-23T10:24:08.641Z,11.30
2019-03-23T10:26:39.464Z,11.40
2019-03-23T10:29:10.268Z,11.40
2019-03-23T10:31:41.109Z,11.50
2019-03-23T10:34:11.901Z,11.50
2019-03-23T10:36:42.781Z,11.60
2019-03-23T10:39:13.604Z,11.70
2019-03-23T10:41:48.001Z,11.60
2019-03-23T10:44:18.884Z,11.70
2019-03-23T10:46:49.756Z,11.70
2019-03-23T10:49:20.586Z,11.70
2019-03-23T10:51:51.408Z,11.70
2019-03-23T10:54:22.229Z,11.60
2019-03-23T10:56:53.029Z,11.60
2019-03-23T10:59:23.865Z,11.60
2019-03-23T11:01:54.821Z,11.70
2019-03-23T11:04:25.819Z,11.80
2019-03-23T11:06:57.049Z,11.80
2019-03-23T11:09:27.885Z,11.90
2019-03-23T11:11:58.815Z,11.90
2019-03-23T11:14:29.627Z,11.90
2019-03-23T11:17:00.510Z,12.10
2019-03-23T11:19:32.624Z,12.00
2019-03-23T11:22:03.437Z,12.00
2019-03-23T11:24:34.333Z,12.10
2019-03-23T11:27:05.353Z,12.20
2019-03-23T11:29:36.281Z,12.30
2019-03-23T11:32:07.250Z,12.40
2019-03-23T11:34:38.197Z,12.40
2019-03-23T11:37:09.073Z,12.40
2019-03-23T11:39:40.103Z,12.50
2019-03-23T11:42:11.981Z,12.60
2019-03-23T11:44:42.852Z,12.50
2019-03-23T11:47:13.753Z,12.60
2019-03-23T11:49:44.641Z,12.60
2019-03-23T11:52:15.441Z,12.50
2019-03-23T11:54:46.273Z,12.50
2019-03-23T11:57:17.165Z,12.60
2019-03-23T11:59:48.001Z,12.80
2019-03-23T12:02:18.992Z,12.80
2019-03-23T12:04:50.769Z,12.80
2019-03-23T12:07:21.626Z,12.90
2019-03-23T12:09:52.437Z,13.00
2019-03-23T12:12:23.429Z,12.90
2019-03-23T12:14:54.301Z,12.90
2019-03-23T12:17:25.997Z,13.00
2019-03-23T12:19:56.828Z,13.00
2019-03-23T12:22:28.045Z,12.90
2019-03-23T12:24:58.864Z,13.00
2019-03-23T12:27:29.732Z,13.00
2019-03-23T12:30:07.091Z,12.90
2019-03-23T12:32:33.338Z,13.10
2019-03-23T12:35:05.297Z,13.10
2019-03-23T12:37:36.481Z,13.10
2019-03-23T12:40:08.347Z,13.00
2019-03-23T12:42:39.253Z,12.90
2019-03-23T12:45:11.449Z,12.90
2019-03-23T12:47:42.345Z,13.00
2019-03-23T12:50:14.190Z,13.00
2019-03-23T12:52:45.297Z,13.00
2019-03-23T12:55:16.132Z,13.00
2019-03-23T12:57:47.013Z,13.00
2019-03-23T13:00:18.926Z,13.20
2019-03-23T13:02:49.845Z,13.10
2019-03-23T13:05:20.750Z,13.20
2019-03-23T13:07:51.565Z,13.10
2019-03-23T13:10:22.385Z,13.10
2019-03-23T13:12:53.177Z,13.10
2019-03-23T13:15:24.069Z,13.10
2019-03-23T13:17:55.117Z,13.20
2019-03-23T13:20:26.321Z,13.20
2019-03-23T13:22:57.310Z,13.20
2019-03-23T13:25:28.145Z,13.30
2019-03-23T13:27:59.058Z,13.30
2019-03-23T13:30:29.913Z,13.30
2019-03-23T13:33:00.789Z,13.30
2019-03-23T13:35:31.622Z,13.40
2019-03-23T13:38:02.429Z,13.20
2019-03-23T13:40:33.405Z,13.20
2019-03-23T13:43:09.637Z,13.40
2019-03-23T13:45:42.760Z,13.30
2019-03-23T13:48:13.721Z,13.30
2019-03-23T13:50:44.644Z,13.30
2019-03-23T13:53:15.529Z,13.40
2019-03-23T13:55:46.511Z,13.30
2019-03-23T13:58:17.378Z,13.30
2019-03-23T14:00:48.253Z,13.20
2019-03-23T14:03:19.154Z,13.30
2019-03-23T14:05:50.026Z,13.30
2019-03-23T14:08:20.950Z,13.50
2019-03-23T14:10:51.749Z,13.40
2019-03-23T14:13:22.580Z,13.30
2019-03-23T14:15:53.361Z,13.30
2019-03-23T14:18:24.194Z,13.30
2019-03-23T14:20:55.110Z,13.30
2019-03-23T14:23:25.946Z,13.20
2019-03-23T14:25:56.743Z,13.20
2019-03-23T14:28:27.577Z,13.30
2019-03-23T14:30:58.397Z,13.20
2019-03-23T14:33:29.256Z,13.20
2019-03-23T14:36:00.238Z,13.20
2019-03-23T14:38:31.079Z,13.30
2019-03-23T14:41:01.973Z,13.20
2019-03-23T14:43:33.241Z,13.20
2019-03-23T14:46:04.153Z,13.20
2019-03-23T14:48:35.049Z,13.20
2019-03-23T14:51:05.945Z,13.20
2019-03-23T14:53:36.781Z,13.00
2019-03-23T14:56:07.590Z,12.90
2019-03-23T14:58:38.690Z,12.90
2019-03-23T15:01:09.849Z,12.80
2019-03-23T15:03:40.710Z,12.80
2019-03-23T15:06:11.524Z,12.80
2019-03-23T15:08:42.358Z,12.80
2019-03-23T15:11:13.245Z,12.80
2019-03-23T15:13:44.070Z,12.60
2019-03-23T15:16:14.869Z,12.50
2019-03-23T15:18:45.685Z,12.30
2019-03-23T15:21:16.512Z,12.30
2019-03-23T15:23:47.410Z,12.40
2019-03-23T15:26:18.239Z,12.40
2019-03-23T15:28:49.178Z,12.40
2019-03-23T15:31:19.974Z,12.40
2019-03-23T15:33:50.934Z,12.40
2019-03-23T15:36:21.891Z,12.40
2019-03-23T15:38:53.066Z,12.40
2019-03-23T15:41:24.832Z,12.40
2019-03-23T15:43:55.733Z,12.40
2019-03-23T15:46:26.607Z,12.40
2019-03-23T15:48:57.610Z,12.40
2019-03-23T15:51:28.509Z,12.40
2019-03-23T15:53:59.406Z,12.30
2019-03-23T15:56:30.474Z,12.30
2019-03-23T15:59:01.294Z,12.30
2019-03-23T16:01:32.437Z,12.30
2019-03-23T16:04:03.427Z,12.30
2019-03-23T16:06:35.334Z,12.30
2019-03-23T16:09:07.510Z,12.20
2019-03-23T16:11:38.438Z,12.10
2019-03-23T16:14:09.338Z,12.10
2019-03-23T16:16:40.291Z,12.00
2019-03-23T16:19:11.190Z,12.00
2019-03-23T16:21:42.228Z,11.90
2019-03-23T16:24:13.038Z,11.90
2019-03-23T16:26:43.922Z,11.80
2019-03-23T16:29:14.738Z,11.80
2019-03-23T16:31:45.586Z,11.80
2019-03-23T16:34:16.479Z,11.80
2019-03-23T16:36:47.322Z,11.80
2019-03-23T16:39:18.134Z,11.70
2019-03-23T16:41:49.031Z,11.80
2019-03-23T16:44:19.842Z,11.80
2019-03-23T16:46:51.082Z,11.60
2019-03-23T16:49:21.922Z,11.50
2019-03-23T16:51:52.734Z,11.50
2019-03-23T16:54:23.695Z,11.50
2019-03-23T16:56:54.922Z,11.40
2019-03-23T16:59:25.786Z,11.30
2019-03-23T17:01:56.743Z,11.30
2019-03-23T17:04:27.543Z,11.20
2019-03-23T17:06:58.435Z,11.20
2019-03-23T17:09:29.226Z,11.20
2019-03-23T17:12:00.115Z,11.20
2019-03-23T17:14:30.954Z,11.20
2019-03-23T17:17:01.826Z,11.10
2019-03-23T17:19:33.601Z,11.10
2019-03-23T17:22:04.496Z,11.20
2019-03-23T17:24:35.586Z,11.10
2019-03-23T17:27:06.568Z,11.20
2019-03-23T17:29:37.482Z,11.20
2019-03-23T17:32:08.384Z,11.10
2019-03-23T17:34:39.202Z,11.10
2019-03-23T17:37:10.182Z,11.10
2019-03-23T17:39:41.094Z,11.10
2019-03-23T17:42:11.983Z,11.10
2019-03-23T17:44:42.854Z,11.10
2019-03-23T17:47:13.831Z,11.10
2019-03-23T17:49:44.627Z,11.10
2019-03-23T17:52:15.471Z,11.10
2019-03-23T17:54:46.323Z,11.10
2019-03-23T17:57:18.895Z,11.10
2019-03-23T17:59:49.698Z,11.00
2019-03-23T18:02:20.719Z,11.00
2019-03-23T18:04:51.682Z,11.00
2019-03-23T18:07:22.506Z,11.00
2019-03-23T18:09:53.303Z,11.00
2019-03-23T18:12:24.185Z,10.90
2019-03-23T18:14:55.275Z,10.90
2019-03-23T18:17:26.198Z,10.90
2019-03-23T18:19:57.023Z,10.90
2019-03-23T18:22:27.943Z,10.90
2019-03-23T18:24:58.774Z,10.90
2019-03-23T18:27:29.602Z,10.90
2019-03-23T18:30:00.431Z,10.90
2019-03-23T18:32:31.298Z,10.90
2019-03-23T18:35:03.230Z,10.90
2019-03-23T18:37:34.420Z,10.80
2019-03-23T18:40:08.138Z,10.80
2019-03-23T18:42:38.858Z,10.80
2019-03-23T18:45:09.881Z,10.90
2019-03-23T18:47:40.711Z,10.90
2019-03-23T18:50:11.736Z,10.90
2019-03-23T18:52:42.534Z,10.90
2019-03-23T18:55:13.435Z,10.90
2019-03-23T18:57:44.333Z,10.90
2019-03-23T19:00:19.087Z,10.90
2019-03-23T19:02:50.110Z,10.80
2019-03-23T19:05:20.899Z,10.80
2019-03-23T19:07:51.731Z,10.80
2019-03-23T19:10:22.607Z,10.80
2019-03-23T19:12:53.498Z,10.80
2019-03-23T19:15:24.459Z,10.80
2019-03-23T19:17:55.348Z,10.80
2019-03-23T19:20:27.267Z,10.90
2019-03-23T19:22:58.287Z,10.80
2019-03-23T19:25:29.187Z,10.80
2019-03-23T19:28:00.119Z,10.80
2019-03-23T19:30:31.073Z,10.80
2019-03-23T19:33:02.100Z,10.70
2019-03-23T19:35:32.947Z,10.70
2019-03-23T19:38:03.960Z,10.70
2019-03-23T19:40:34.847Z,10.70
2019-03-23T19:43:05.991Z,10.60
2019-03-23T19:45:36.887Z,10.60
2019-03-23T19:48:07.807Z,10.60
2019-03-23T19:50:38.701Z,10.60
2019-03-23T19:53:09.640Z,10.60
2019-03-23T19:55:40.587Z,10.60
2019-03-23T19:58:11.499Z,10.60
2019-03-23T20:00:43.738Z,10.60
2019-03-23T20:03:19.200Z,10.60
2019-03-23T20:05:57.206Z,10.60
2019-03-23T20:08:28.445Z,10.60
2019-03-23T20:11:01.987Z,10.60
2019-03-23T20:13:37.842Z,10.50
2019-03-23T20:16:13.104Z,10.40
2019-03-23T20:18:44.641Z,10.40
2019-03-23T20:21:19.882Z,10.40
2019-03-23T20:23:57.189Z,10.30
2019-03-23T20:26:31.122Z,10.30
2019-03-23T20:29:09.119Z,10.30
2019-03-23T20:31:45.621Z,10.30
2019-03-23T20:34:20.833Z,10.30
2019-03-23T20:36:54.082Z,10.30
2019-03-23T20:39:26.574Z,10.20
2019-03-23T20:41:59.702Z,10.20
2019-03-23T20:44:32.222Z,10.10
2019-03-23T20:47:05.122Z,10.20
2019-03-23T20:49:41.194Z,10.10
2019-03-23T20:52:17.453Z,10.10
2019-03-23T20:54:50.366Z,10.10
2019-03-23T20:57:36.923Z,10.10
2019-03-23T21:00:06.274Z,10.00
2019-03-23T21:02:44.714Z,10.00
2019-03-23T21:05:33.055Z,10.00
2019-03-23T21:08:02.623Z,9.90
2019-03-23T21:10:37.637Z,9.90
2019-03-23T21:13:10.393Z,9.90
2019-03-23T21:15:45.759Z,9.90
2019-03-23T21:18:20.004Z,9.80
2019-03-23T21:20:54.519Z,9.70
2019-03-23T21:23:28.274Z,9.60
2019-03-23T21:26:03.861Z,9.60
2019-03-23T21:28:37.670Z,9.50
2019-03-23T21:31:10.922Z,9.40
2019-03-23T21:33:48.938Z,9.30
2019-03-23T21:36:23.930Z,9.30
2019-03-23T21:38:59.434Z,9.20
2019-03-23T21:41:34.231Z,9.10
2019-03-23T21:44:09.198Z,9.00
2019-03-23T21:46:45.934Z,9.00
2019-03-23T21:49:22.610Z,8.90
2019-03-23T21:51:53.732Z,8.90
2019-03-23T21:54:24.574Z,8.90
2019-03-23T21:56:55.374Z,8.90
2019-03-23T21:59:26.198Z,8.90
2019-03-23T22:01:57.016Z,8.90
2019-03-23T22:04:27.829Z,8.90
2019-03-23T22:06:58.691Z,8.80
2019-03-23T22:09:30.482Z,8.80
2019-03-23T22:12:01.578Z,8.90
2019-03-23T22:14:41.383Z,8.90
2019-03-23T22:17:06.003Z,8.80
2019-03-23T22:19:37.046Z,8.80
2019-03-23T22:22:07.917Z,8.80
2019-03-23T22:24:38.922Z,8.70
2019-03-23T22:27:09.714Z,8.70
2019-03-23T22:29:40.606Z,8.70
2019-03-23T22:32:12.385Z,8.60
2019-03-23T22:34:43.190Z,8.60
2019-03-23T22:37:14.020Z,8.50
2019-03-23T22:39:44.850Z,8.50
2019-03-23T22:42:15.722Z,8.40
2019-03-23T22:44:52.505Z,8.40
2019-03-23T22:47:18.999Z,8.40
2019-03-23T22:49:50.658Z,8.40
2019-03-23T22:52:21.450Z,8.40
2019-03-23T22:54:53.387Z,8.40
2019-03-23T22:57:24.190Z,8.40
2019-03-23T22:59:54.998Z,8.40
2019-03-23T23:02:31.930Z,8.40
2019-03-23T23:05:02.858Z,8.30
2019-03-23T23:07:35.090Z,8.30
2019-03-23T23:10:06.730Z,8.30
2019-03-23T23:12:37.620Z,8.20
2019-03-23T23:15:20.582Z,8.20
2019-03-23T23:17:51.378Z,8.10
2019-03-23T23:20:22.290Z,8.00
2019-03-23T23:22:53.182Z,8.10
2019-03-23T23:25:24.054Z,8.00
2019-03-23T23:27:55.854Z,8.00
2019-03-23T23:30:26.778Z,8.00
2019-03-23T23:32:57.718Z,8.00
2019-03-23T23:35:28.538Z,8.00
2019-03-23T23:37:59.426Z,8.00
2019-03-23T23:40:30.470Z,8.00
2019-03-23T23:43:01.286Z,8.00
2019-03-23T23:45:32.506Z,7.90
2019-03-23T23:48:03.374Z,8.00
2019-03-23T23:50:34.182Z,8.00
2019-03-23T23:53:05.456Z,8.00
2019-03-23T23:55:36.434Z,7.90
2019-03-23T23:58:07.322Z,8.00
